createdAt,value
2018-07-17T00:01:07.319Z,15.90
2018-07-17T00:03:35.083Z,15.80
2018-07-17T00:06:02.811Z,15.80
2018-07-17T00:08:30.544Z,15.80
2018-07-17T00:10:58.240Z,15.70
2018-07-17T00:13:26.008Z,15.80
2018-07-17T00:15:53.783Z,15.80
2018-07-17T00:18:21.526Z,15.70
2018-07-17T00:20:49.276Z,15.70
2018-07-17T00:23:17.097Z,15.70
2018-07-17T00:25:44.815Z,15.60
2018-07-17T00:28:12.579Z,15.50
2018-07-17T00:30:40.308Z,15.50
2018-07-17T00:33:08.064Z,15.50
2018-07-17T00:35:35.970Z,15.40
2018-07-17T00:38:03.715Z,15.30
2018-07-17T00:40:31.450Z,15.30
2018-07-17T00:42:59.205Z,15.30
2018-07-17T00:45:26.928Z,15.30
2018-07-17T00:47:54.648Z,15.30
2018-07-17T00:50:23.158Z,15.20
2018-07-17T00:52:50.893Z,15.30
2018-07-17T00:55:18.625Z,15.30
2018-07-17T00:57:46.488Z,15.30
2018-07-17T01:00:14.228Z,15.40
2018-07-17T01:02:47.356Z,15.40
2018-07-17T01:05:20.395Z,15.40
2018-07-17T01:07:53.473Z,15.40
2018-07-17T01:10:26.647Z,15.50
2018-07-17T01:12:53.647Z,15.50
2018-07-17T01:15:30.515Z,15.50
2018-07-17T01:17:58.330Z,15.40
2018-07-17T01:20:26.112Z,15.40
2018-07-17T01:22:53.873Z,15.40
2018-07-17T01:25:21.656Z,15.40
2018-07-17T01:27:49.379Z,15.40
2018-07-17T01:32:44.573Z,15.40
2018-07-17T01:35:12.283Z,15.40
2018-07-17T01:37:40.008Z,15.40
2018-07-17T01:40:07.767Z,15.40
2018-07-17T01:42:35.537Z,15.40
2018-07-17T01:45:03.279Z,15.30
2018-07-17T01:47:31.024Z,15.20
2018-07-17T01:49:58.751Z,15.30
2018-07-17T01:52:26.461Z,15.30
2018-07-17T01:54:54.167Z,15.30
2018-07-17T01:57:21.903Z,15.30
2018-07-17T01:59:49.677Z,15.20
2018-07-17T02:02:17.379Z,15.20
2018-07-17T02:04:45.122Z,15.20
2018-07-17T02:07:12.816Z,15.30
2018-07-17T02:09:40.552Z,15.20
2018-07-17T02:12:08.241Z,15.20
2018-07-17T02:14:35.929Z,15.20
2018-07-17T02:17:03.699Z,15.20
2018-07-17T02:19:31.399Z,15.10
2018-07-17T02:21:59.117Z,15.10
2018-07-17T02:24:26.817Z,15.10
2018-07-17T02:26:54.555Z,15.10
2018-07-17T02:29:22.252Z,15.00
2018-07-17T02:31:49.992Z,14.90
2018-07-17T02:34:17.756Z,14.90
2018-07-17T02:36:45.452Z,14.90
2018-07-17T02:39:13.247Z,14.80
2018-07-17T02:41:40.980Z,14.70
2018-07-17T02:44:08.816Z,14.70
2018-07-17T02:46:36.581Z,14.60
2018-07-17T02:49:04.405Z,14.60
2018-07-17T02:51:32.116Z,14.60
2018-07-17T02:53:59.918Z,14.60
2018-07-17T02:56:27.692Z,14.60
2018-07-17T02:58:55.379Z,14.50
2018-07-17T03:01:23.100Z,14.50
2018-07-17T03:03:50.861Z,14.50
2018-07-17T03:06:18.620Z,14.50
2018-07-17T03:08:46.389Z,14.50
2018-07-17T03:13:41.589Z,14.50
2018-07-17T03:16:09.331Z,14.60
2018-07-17T03:18:37.103Z,14.50
2018-07-17T03:21:04.896Z,14.50
2018-07-17T03:23:32.589Z,14.50
2018-07-17T03:26:00.323Z,14.40
2018-07-17T03:28:28.077Z,14.40
2018-07-17T03:30:55.793Z,14.50
2018-07-17T03:33:23.528Z,14.50
2018-07-17T03:35:51.324Z,14.50
2018-07-17T03:38:19.099Z,14.60
2018-07-17T03:40:46.835Z,14.60
2018-07-17T03:43:14.553Z,14.60
2018-07-17T03:45:42.284Z,14.50
2018-07-17T03:48:10.024Z,14.60
2018-07-17T03:50:37.758Z,14.60
2018-07-17T03:53:05.595Z,14.70
2018-07-17T03:55:33.343Z,14.80
2018-07-17T03:58:01.060Z,14.80
2018-07-17T04:00:28.760Z,14.70
2018-07-17T04:02:56.626Z,14.80
2018-07-17T04:05:24.287Z,14.80
2018-07-17T04:07:52.041Z,14.80
2018-07-17T04:10:19.788Z,14.80
2018-07-17T04:12:47.515Z,14.90
2018-07-17T04:15:15.251Z,14.70
2018-07-17T04:17:42.952Z,14.70
2018-07-17T04:20:10.740Z,14.80
2018-07-17T04:22:38.467Z,14.80
2018-07-17T04:25:06.208Z,14.80
2018-07-17T04:27:33.959Z,14.80
2018-07-17T04:30:01.699Z,15.00
2018-07-17T04:32:29.993Z,15.10
2018-07-17T04:34:57.719Z,15.20
2018-07-17T04:37:25.619Z,15.30
2018-07-17T04:39:53.336Z,15.30
2018-07-17T04:42:21.064Z,15.40
2018-07-17T04:44:48.812Z,15.60
2018-07-17T04:47:16.601Z,15.70
2018-07-17T04:49:44.372Z,15.70
2018-07-17T04:52:12.099Z,15.80
2018-07-17T04:54:39.821Z,15.80
2018-07-17T04:57:07.931Z,15.80
2018-07-17T04:59:35.715Z,15.80
2018-07-17T05:02:03.547Z,16.00
2018-07-17T05:04:31.276Z,16.90
2018-07-17T05:06:59.025Z,17.80
2018-07-17T05:09:26.826Z,18.30
2018-07-17T05:11:54.583Z,18.70
2018-07-17T05:14:22.333Z,19.40
2018-07-17T05:16:50.171Z,20.40
2018-07-17T05:19:17.899Z,21.30
2018-07-17T05:21:45.706Z,22.00
2018-07-17T05:24:13.444Z,22.80
2018-07-17T05:26:41.191Z,23.50
2018-07-17T05:29:08.945Z,24.30
2018-07-17T05:31:36.666Z,24.90
2018-07-17T05:34:04.400Z,25.10
2018-07-17T05:36:32.137Z,25.40
2018-07-17T05:38:59.997Z,26.00
2018-07-17T05:41:27.764Z,26.60
2018-07-17T05:43:55.522Z,27.00
2018-07-17T05:46:23.286Z,27.50
2018-07-17T05:48:51.032Z,28.10
2018-07-17T05:51:18.761Z,28.50
2018-07-17T05:53:46.768Z,28.80
2018-07-17T05:56:14.532Z,28.30
2018-07-17T05:58:42.419Z,27.30
2018-07-17T06:01:10.232Z,26.60
2018-07-17T06:03:38.093Z,27.20
2018-07-17T06:06:05.936Z,27.90
2018-07-17T06:08:33.762Z,28.70
2018-07-17T06:11:01.572Z,29.40
2018-07-17T06:13:29.431Z,29.80
2018-07-17T06:15:57.563Z,30.40
2018-07-17T06:20:52.827Z,31.60
2018-07-17T06:23:20.727Z,32.10
2018-07-17T06:25:48.512Z,32.50
2018-07-17T06:28:16.378Z,32.90
2018-07-17T06:30:44.202Z,32.50
2018-07-17T06:33:12.016Z,32.30
2018-07-17T06:35:39.815Z,32.70
2018-07-17T06:38:07.614Z,32.70
2018-07-17T06:40:35.391Z,32.70
2018-07-17T06:43:03.221Z,33.10
2018-07-17T06:45:30.959Z,33.40
2018-07-17T06:47:58.833Z,33.70
2018-07-17T06:50:26.734Z,33.70
2018-07-17T06:52:54.472Z,32.90
2018-07-17T06:55:22.344Z,32.50
2018-07-17T06:57:50.105Z,32.30
2018-07-17T07:00:17.875Z,32.40
2018-07-17T07:02:45.672Z,32.40
2018-07-17T07:05:13.564Z,32.40
2018-07-17T07:07:41.649Z,32.40
2018-07-17T07:10:09.464Z,32.50
2018-07-17T07:12:37.233Z,32.40
2018-07-17T07:15:05.157Z,32.00
2018-07-17T07:17:32.967Z,32.30
2018-07-17T07:20:00.781Z,32.70
2018-07-17T07:22:28.572Z,32.60
2018-07-17T07:24:57.239Z,32.40
2018-07-17T07:27:25.300Z,32.00
2018-07-17T07:29:53.098Z,32.20
2018-07-17T07:34:48.488Z,33.30
2018-07-17T07:37:16.316Z,33.30
2018-07-17T07:39:44.149Z,33.50
2018-07-17T07:42:11.973Z,33.80
2018-07-17T07:44:39.807Z,34.40
2018-07-17T07:47:07.580Z,34.00
2018-07-17T07:49:35.325Z,34.10
2018-07-17T07:52:03.827Z,34.20
2018-07-17T07:54:31.611Z,34.60
2018-07-17T07:56:59.439Z,34.50
2018-07-17T07:59:27.260Z,34.90
2018-07-17T08:01:55.024Z,35.20
2018-07-17T08:04:22.837Z,35.70
2018-07-17T08:06:50.612Z,35.90
2018-07-17T08:09:18.370Z,35.90
2018-07-17T08:11:46.315Z,36.10
2018-07-17T08:14:14.031Z,36.30
2018-07-17T08:16:41.911Z,36.40
2018-07-17T08:19:09.757Z,36.80
2018-07-17T08:21:37.511Z,36.50
2018-07-17T08:24:05.269Z,36.70
2018-07-17T08:26:33.147Z,36.70
2018-07-17T08:29:00.925Z,37.10
2018-07-17T08:31:28.687Z,36.40
2018-07-17T08:33:56.511Z,35.70
2018-07-17T08:36:24.293Z,35.90
2018-07-17T08:38:52.095Z,36.20
2018-07-17T08:41:19.886Z,36.60
2018-07-17T08:43:47.679Z,36.30
2018-07-17T08:46:15.539Z,36.40
2018-07-17T08:48:43.351Z,36.30
2018-07-17T08:51:11.123Z,36.70
2018-07-17T08:53:38.937Z,36.90
2018-07-17T08:56:06.774Z,37.40
2018-07-17T08:58:34.615Z,38.00
2018-07-17T09:01:02.431Z,38.40
2018-07-17T09:03:30.248Z,38.60
2018-07-17T09:05:58.058Z,38.50
2018-07-17T09:08:25.933Z,38.60
2018-07-17T09:10:53.851Z,38.70
2018-07-17T09:13:21.614Z,39.20
2018-07-17T09:15:49.478Z,38.90
2018-07-17T09:18:17.223Z,38.70
2018-07-17T09:20:45.057Z,38.00
2018-07-17T09:23:12.923Z,37.60
2018-07-17T09:25:40.781Z,37.60
2018-07-17T09:28:08.576Z,37.90
2018-07-17T09:30:41.708Z,37.70
2018-07-17T09:33:09.480Z,38.00
2018-07-17T09:35:37.280Z,37.80
2018-07-17T09:38:05.196Z,37.60
2018-07-17T09:40:33.034Z,37.90
2018-07-17T09:43:00.846Z,37.60
2018-07-17T09:45:28.662Z,37.60
2018-07-17T09:47:56.429Z,37.50
2018-07-17T09:50:24.204Z,37.70
2018-07-17T09:52:51.981Z,37.80
2018-07-17T09:55:19.890Z,37.80
2018-07-17T09:57:47.682Z,37.90
2018-07-17T10:01:21.284Z,38.10
2018-07-17T10:03:49.073Z,37.80
2018-07-17T10:06:16.879Z,38.10
2018-07-17T10:08:45.255Z,38.10
2018-07-17T10:11:13.037Z,38.90
2018-07-17T10:13:40.839Z,38.70
2018-07-17T10:16:08.677Z,38.60
2018-07-17T10:18:36.475Z,38.30
2018-07-17T10:21:04.307Z,38.10
2018-07-17T10:23:32.111Z,38.20
2018-07-17T10:25:59.863Z,38.70
2018-07-17T10:28:27.680Z,38.30
2018-07-17T10:30:55.421Z,38.40
2018-07-17T10:33:23.200Z,38.70
2018-07-17T10:35:50.982Z,38.90
2018-07-17T10:38:18.940Z,38.10
2018-07-17T10:40:46.747Z,37.00
2018-07-17T10:45:41.991Z,37.40
2018-07-17T10:48:09.739Z,38.10
2018-07-17T10:50:37.521Z,38.60
2018-07-17T10:53:05.320Z,38.90
2018-07-17T10:55:33.084Z,38.50
2018-07-17T10:58:00.851Z,38.80
2018-07-17T11:00:28.648Z,37.90
2018-07-17T11:02:56.409Z,37.60
2018-07-17T11:05:24.212Z,37.60
2018-07-17T11:07:52.053Z,37.10
2018-07-17T11:10:19.867Z,37.10
2018-07-17T11:12:47.698Z,37.20
2018-07-17T11:15:15.456Z,37.50
2018-07-17T11:17:43.319Z,38.30
2018-07-17T11:20:11.116Z,38.10
2018-07-17T11:22:38.951Z,38.00
2018-07-17T11:25:06.837Z,36.80
2018-07-17T11:27:34.649Z,36.10
2018-07-17T11:30:02.436Z,35.70
2018-07-17T11:32:30.269Z,35.70
2018-07-17T11:34:58.039Z,35.90
2018-07-17T11:37:25.891Z,35.90
2018-07-17T11:39:53.722Z,36.00
2018-07-17T11:42:21.505Z,36.50
2018-07-17T11:44:49.238Z,37.10
2018-07-17T11:47:17.062Z,37.60
2018-07-17T11:49:44.848Z,38.10
2018-07-17T11:52:12.660Z,37.60
2018-07-17T11:54:40.388Z,36.60
2018-07-17T11:57:08.355Z,35.30
2018-07-17T11:59:36.217Z,34.30
2018-07-17T12:02:03.907Z,33.30
2018-07-17T12:04:31.712Z,32.60
2018-07-17T12:06:59.511Z,32.10
2018-07-17T12:09:27.390Z,31.90
2018-07-17T12:11:55.135Z,31.20
2018-07-17T12:14:23.043Z,30.50
2018-07-17T12:16:50.948Z,30.40
2018-07-17T12:19:18.664Z,30.20
2018-07-17T12:21:46.513Z,30.00
2018-07-17T12:24:14.253Z,29.80
2018-07-17T12:26:42.600Z,30.30
2018-07-17T12:29:10.425Z,31.40
2018-07-17T12:31:38.206Z,32.20
2018-07-17T12:34:06.117Z,33.20
2018-07-17T12:36:33.842Z,34.10
2018-07-17T12:39:01.643Z,35.20
2018-07-17T12:41:29.441Z,35.90
2018-07-17T12:43:57.419Z,36.80
2018-07-17T12:46:25.171Z,36.40
2018-07-17T12:48:52.991Z,36.30
2018-07-17T12:51:20.815Z,36.50
2018-07-17T12:53:48.663Z,37.00
2018-07-17T12:56:16.423Z,36.80
2018-07-17T12:58:44.220Z,37.00
2018-07-17T13:01:12.063Z,37.60
2018-07-17T13:03:40.709Z,38.10
2018-07-17T13:06:08.474Z,38.70
2018-07-17T13:08:36.508Z,39.10
2018-07-17T13:11:04.236Z,39.30
2018-07-17T13:13:32.055Z,39.20
2018-07-17T13:15:59.867Z,38.60
2018-07-17T13:18:27.710Z,38.10
2018-07-17T13:20:55.527Z,37.80
2018-07-17T13:23:23.486Z,37.20
2018-07-17T13:25:51.252Z,36.30
2018-07-17T13:28:19.071Z,35.90
2018-07-17T13:30:46.892Z,36.30
2018-07-17T13:33:14.725Z,37.00
2018-07-17T13:35:42.597Z,37.20
2018-07-17T13:38:10.388Z,37.30
2018-07-17T13:40:38.185Z,36.50
2018-07-17T13:43:05.975Z,35.70
2018-07-17T13:45:33.742Z,34.90
2018-07-17T13:48:01.525Z,34.20
2018-07-17T13:50:29.330Z,34.10
2018-07-17T13:52:57.114Z,34.10
2018-07-17T13:55:24.942Z,33.60
2018-07-17T13:57:52.743Z,33.00
2018-07-17T14:00:20.480Z,32.50
2018-07-17T14:02:48.220Z,32.20
2018-07-17T14:05:16.024Z,32.00
2018-07-17T14:07:43.770Z,31.60
2018-07-17T14:10:11.557Z,31.60
2018-07-17T14:12:39.351Z,31.70
2018-07-17T14:15:07.111Z,32.10
2018-07-17T14:17:34.844Z,32.10
2018-07-17T14:20:02.627Z,32.10
2018-07-17T14:22:30.355Z,31.70
2018-07-17T14:24:58.088Z,31.40
2018-07-17T14:27:25.823Z,30.50
2018-07-17T14:29:53.556Z,29.20
2018-07-17T14:32:21.273Z,28.00
2018-07-17T14:34:49.027Z,27.00
2018-07-17T14:37:16.739Z,25.20
2018-07-17T14:39:44.468Z,23.20
2018-07-17T14:42:12.277Z,21.60
2018-07-17T14:44:40.019Z,20.80
2018-07-17T14:48:29.832Z,20.20
2018-07-17T14:50:57.580Z,19.70
2018-07-17T14:53:25.385Z,19.50
2018-07-17T14:55:53.112Z,19.40
2018-07-17T14:58:20.886Z,19.50
2018-07-17T15:00:48.661Z,19.60
2018-07-17T15:03:16.439Z,19.80
2018-07-17T15:05:44.182Z,20.00
2018-07-17T15:08:11.966Z,20.20
2018-07-17T15:10:39.748Z,20.30
2018-07-17T15:13:07.554Z,20.60
2018-07-17T15:15:35.398Z,21.10
2018-07-17T15:18:03.112Z,21.70
2018-07-17T15:20:30.847Z,22.20
2018-07-17T15:22:58.617Z,22.70
2018-07-17T15:25:26.429Z,23.20
2018-07-17T15:27:54.355Z,23.50
2018-07-17T15:32:51.430Z,23.80
2018-07-17T15:35:19.461Z,23.90
2018-07-17T15:37:47.240Z,24.10
2018-07-17T15:40:15.012Z,24.10
2018-07-17T15:42:42.796Z,24.00
2018-07-17T15:45:10.508Z,24.00
2018-07-17T15:47:38.222Z,23.80
2018-07-17T15:50:06.072Z,23.60
2018-07-17T15:52:33.860Z,23.60
2018-07-17T15:55:01.548Z,23.60
2018-07-17T15:57:29.305Z,23.80
2018-07-17T15:59:57.071Z,24.00
2018-07-17T16:02:24.815Z,24.20
2018-07-17T16:04:52.554Z,24.70
2018-07-17T16:07:20.352Z,25.00
2018-07-17T16:09:48.082Z,25.50
2018-07-17T16:12:15.823Z,26.40
2018-07-17T16:14:43.544Z,27.30
2018-07-17T16:17:11.247Z,27.80
2018-07-17T16:19:39.051Z,28.00
2018-07-17T16:22:06.855Z,28.00
2018-07-17T16:24:34.609Z,28.00
2018-07-17T16:27:02.388Z,28.00
2018-07-17T16:29:30.098Z,28.30
2018-07-17T16:31:57.800Z,28.80
2018-07-17T16:34:25.581Z,29.40
2018-07-17T16:36:53.327Z,29.60
2018-07-17T16:41:48.508Z,29.70
2018-07-17T16:44:16.236Z,29.70
2018-07-17T16:47:08.945Z,29.90
2018-07-17T16:49:36.708Z,29.80
2018-07-17T16:52:04.447Z,29.70
2018-07-17T16:54:32.184Z,29.90
2018-07-17T16:56:59.919Z,29.90
2018-07-17T16:59:27.632Z,29.90
2018-07-17T17:01:55.389Z,30.00
2018-07-17T17:04:23.165Z,30.00
2018-07-17T17:06:50.892Z,30.00
2018-07-17T17:09:18.676Z,30.10
2018-07-17T17:11:46.471Z,30.10
2018-07-17T17:14:14.250Z,30.00
2018-07-17T17:16:42.093Z,30.00
2018-07-17T17:19:09.825Z,30.00
2018-07-17T17:21:37.850Z,30.10
2018-07-17T17:24:06.170Z,30.10
2018-07-17T17:26:33.795Z,30.00
2018-07-17T17:29:01.564Z,30.10
2018-07-17T17:31:29.339Z,30.20
2018-07-17T17:33:57.091Z,30.30
2018-07-17T17:36:24.927Z,30.20
2018-07-17T17:38:52.627Z,30.10
2018-07-17T17:41:20.472Z,30.00
2018-07-17T17:43:48.206Z,29.70
2018-07-17T17:46:16.003Z,29.60
2018-07-17T17:48:43.748Z,29.20
2018-07-17T17:51:11.507Z,29.00
2018-07-17T17:53:39.261Z,29.00
2018-07-17T17:56:07.039Z,29.00
2018-07-17T17:58:34.760Z,28.90
2018-07-17T18:01:02.521Z,28.90
2018-07-17T18:03:30.262Z,28.80
2018-07-17T18:05:58.005Z,28.70
2018-07-17T18:08:25.721Z,28.50
2018-07-17T18:10:53.483Z,28.30
2018-07-17T18:13:21.327Z,28.00
2018-07-17T18:15:49.073Z,27.60
2018-07-17T18:18:16.839Z,27.50
2018-07-17T18:20:44.642Z,27.10
2018-07-17T18:23:12.432Z,26.90
2018-07-17T18:25:40.195Z,26.60
2018-07-17T18:34:05.762Z,26.60
2018-07-17T18:36:34.379Z,25.90
2018-07-17T18:39:03.027Z,25.50
2018-07-17T18:41:31.622Z,25.10
2018-07-17T18:44:00.168Z,24.80
2018-07-17T18:46:28.801Z,24.50
2018-07-17T18:48:57.327Z,24.20
2018-07-17T18:51:25.944Z,24.00
2018-07-17T18:53:54.551Z,23.80
2018-07-17T18:56:23.172Z,23.70
2018-07-17T18:58:51.722Z,23.50
2018-07-17T19:01:20.245Z,23.30
2018-07-17T19:06:17.003Z,23.20
2018-07-17T19:08:45.972Z,23.20
2018-07-17T19:11:14.877Z,23.10
2018-07-17T19:13:43.482Z,22.90
2018-07-17T19:16:12.403Z,22.80
2018-07-17T19:18:41.637Z,22.60
2018-07-17T19:21:10.218Z,22.40
2018-07-17T19:23:39.047Z,22.30
2018-07-17T19:26:07.667Z,22.10
2018-07-17T19:28:36.209Z,22.00
2018-07-17T19:31:04.773Z,21.90
2018-07-17T19:33:33.347Z,21.90
2018-07-17T19:36:01.876Z,21.70
2018-07-17T19:38:30.416Z,21.50
2018-07-17T19:40:59.322Z,21.50
2018-07-17T19:43:27.919Z,21.40
2018-07-17T19:45:56.482Z,21.40
2018-07-17T19:48:25.444Z,21.30
2018-07-17T19:50:53.966Z,21.20
2018-07-17T19:53:22.510Z,21.20
2018-07-17T19:55:51.070Z,21.20
2018-07-17T19:58:19.597Z,21.10
2018-07-17T20:03:16.381Z,21.10
2018-07-17T20:05:45.017Z,21.00
2018-07-17T20:08:13.596Z,21.00
2018-07-17T20:10:42.073Z,21.00
2018-07-17T20:13:10.639Z,21.00
2018-07-17T20:15:39.223Z,20.90
2018-07-17T20:18:07.878Z,21.00
2018-07-17T20:20:36.376Z,20.90
2018-07-17T20:23:04.953Z,20.90
2018-07-17T20:25:33.513Z,20.80
2018-07-17T20:28:02.082Z,20.80
2018-07-17T20:30:30.580Z,20.70
2018-07-17T20:32:59.237Z,20.60
2018-07-17T20:35:27.831Z,20.60
2018-07-17T20:37:56.432Z,20.50
2018-07-17T20:40:24.957Z,20.40
2018-07-17T20:42:53.531Z,20.40
2018-07-17T20:45:22.008Z,20.30
2018-07-17T20:47:50.587Z,20.30
2018-07-17T20:50:19.107Z,20.20
2018-07-17T20:52:47.666Z,20.20
2018-07-17T20:55:16.228Z,20.20
2018-07-17T20:57:44.737Z,20.10
2018-07-17T21:00:13.264Z,20.10
2018-07-17T21:02:41.825Z,20.10
2018-07-17T21:05:10.376Z,20.10
2018-07-17T21:07:38.977Z,20.10
2018-07-17T21:10:07.596Z,20.00
2018-07-17T21:12:36.508Z,19.90
2018-07-17T21:15:05.565Z,19.70
2018-07-17T21:17:34.335Z,19.60
2018-07-17T21:20:02.915Z,19.40
2018-07-17T21:22:31.464Z,19.30
2018-07-17T21:25:00.049Z,19.10
2018-07-17T21:27:28.533Z,19.00
2018-07-17T21:29:57.056Z,18.90
2018-07-17T21:32:25.571Z,18.80
2018-07-17T21:34:54.089Z,18.80
2018-07-17T21:37:22.600Z,18.70
2018-07-17T21:42:19.328Z,18.60
2018-07-17T21:44:47.835Z,18.60
2018-07-17T21:47:16.303Z,18.50
2018-07-17T21:49:45.036Z,18.40
2018-07-17T21:52:13.443Z,18.50
2018-07-17T21:54:41.973Z,18.40
2018-07-17T21:57:10.514Z,18.40
2018-07-17T21:59:39.091Z,18.30
2018-07-17T22:02:08.433Z,18.20
2018-07-17T22:04:36.950Z,18.10
2018-07-17T22:07:05.565Z,18.00
2018-07-17T22:09:34.083Z,17.90
2018-07-17T22:12:02.604Z,17.90
2018-07-17T22:14:31.104Z,18.00
2018-07-17T22:16:59.678Z,17.90
2018-07-17T22:19:28.185Z,18.00
2018-07-17T22:21:56.671Z,18.00
2018-07-17T22:24:25.171Z,18.00
2018-07-17T22:26:53.720Z,17.90
2018-07-17T22:29:22.253Z,17.90
2018-07-17T22:31:50.804Z,17.80
2018-07-17T22:34:19.372Z,17.80
2018-07-17T22:36:47.904Z,17.80
2018-07-17T22:39:16.404Z,17.70
2018-07-17T22:41:44.960Z,17.70
2018-07-17T22:44:13.508Z,17.60
2018-07-17T22:46:42.010Z,17.60
2018-07-17T22:49:10.642Z,17.70
2018-07-17T22:51:39.144Z,17.70
2018-07-17T22:54:07.656Z,17.70
2018-07-17T22:56:36.158Z,17.60
2018-07-17T22:59:04.707Z,17.60
2018-07-17T23:01:33.253Z,17.50
2018-07-17T23:04:01.781Z,17.40
2018-07-17T23:06:30.287Z,17.30
2018-07-17T23:08:58.848Z,17.30
2018-07-17T23:11:27.365Z,17.30
2018-07-17T23:13:55.949Z,17.20
2018-07-17T23:16:24.531Z,17.30
2018-07-17T23:18:53.043Z,17.40
2018-07-17T23:21:21.664Z,17.40
2018-07-17T23:23:50.210Z,17.30
2018-07-17T23:26:18.730Z,17.30
2018-07-17T23:28:47.247Z,17.30
2018-07-17T23:31:15.718Z,17.30
2018-07-17T23:33:44.201Z,17.30
2018-07-17T23:36:12.708Z,17.30
2018-07-17T23:38:41.287Z,17.20
2018-07-17T23:41:09.808Z,17.10
2018-07-17T23:43:38.385Z,17.10
2018-07-17T23:46:06.922Z,17.10
2018-07-17T23:51:03.614Z,17.10
2018-07-17T23:53:32.099Z,17.10
2018-07-17T23:56:00.625Z,17.00
2018-07-17T23:58:29.131Z,16.90
